sensor_id;sensor_type;location;lat;lon;timestamp;pressure;altitude;pressure_sealevel;temperature;humidity
70521;BME280;58442;52.716;23.560;2024-03-29T00:00:11;99585.81;;;9.00;69.19
70521;BME280;58442;52.716;23.560;2024-03-29T00:00:27;99586.95;;;8.99;69.20
70521;BME280;58442;52.716;23.560;2024-03-29T00:00:43;99584.25;;;8.99;69.21
70521;BME280;58442;52.716;23.560;2024-03-29T00:01:02;99582.66;;;8.98;69.21
70521;BME280;58442;52.716;23.560;2024-03-29T00:01:18;99581.09;;;8.97;69.21
70521;BME280;58442;52.716;23.560;2024-03-29T00:01:34;99581.88;;;8.98;69.20
70521;BME280;58442;52.716;23.560;2024-03-29T00:01:45;99581.88;;;8.98;69.20
70521;BME280;58442;52.716;23.560;2024-03-29T00:01:56;99585.74;;;8.97;69.19
70521;BME280;58442;52.716;23.560;2024-03-29T00:02:08;99580.32;;;8.97;69.19
70521;BME280;58442;52.716;23.560;2024-03-29T00:02:19;99580.32;;;8.97;69.21
70521;BME280;58442;52.716;23.560;2024-03-29T00:02:30;99584.18;;;8.96;69.21
70521;BME280;58442;52.716;23.560;2024-03-29T00:02:41;99578.75;;;8.96;69.21
70521;BME280;58442;52.716;23.560;2024-03-29T00:02:52;99578.75;;;8.96;69.21
70521;BME280;58442;52.716;23.560;2024-03-29T00:03:04;99589.60;;;8.96;69.20
70521;BME280;58442;52.716;23.560;2024-03-29T00:03:15;99588.04;;;8.95;69.21
70521;BME280;58442;52.716;23.560;2024-03-29T00:03:27;99581.84;;;8.94;69.20
70521;BME280;58442;52.716;23.560;2024-03-29T00:03:38;99587.27;;;8.94;69.20
70521;BME280;58442;52.716;23.560;2024-03-29T00:03:49;99586.48;;;8.94;69.20
70521;BME280;58442;52.716;23.560;2024-03-29T00:04:00;99586.48;;;8.94;69.20
70521;BME280;58442;52.716;23.560;2024-03-29T00:04:11;99579.51;;;8.93;69.21
70521;BME280;58442;52.716;23.560;2024-03-29T00:04:22;99584.92;;;8.93;69.21
70521;BME280;58442;52.716;23.560;2024-03-29T00:04:34;99589.56;;;8.92;69.22
70521;BME280;58442;52.716;23.560;2024-03-29T00:04:45;99588.75;;;8.92;69.23
70521;BME280;58442;52.716;23.560;2024-03-29T00:04:56;99594.98;;;8.92;69.24
70521;BME280;58442;52.716;23.560;2024-03-29T00:05:08;99588.75;;;8.92;69.23
70521;BME280;58442;52.716;23.560;2024-03-29T00:05:19;99586.05;;;8.92;69.23
70521;BME280;58442;52.716;23.560;2024-03-29T00:05:30;99593.39;;;8.91;69.23
70521;BME280;58442;52.716;23.560;2024-03-29T00:05:41;99592.61;;;8.91;69.23
70521;BME280;58442;52.716;23.560;2024-03-29T00:05:52;99591.84;;;8.90;69.23
70521;BME280;58442;52.716;23.560;2024-03-29T00:06:04;99591.05;;;8.90;69.23
70521;BME280;58442;52.716;23.560;2024-03-29T00:06:15;99593.77;;;8.90;69.23
70521;BME280;58442;52.716;23.560;2024-03-29T00:06:26;99590.63;;;8.88;69.23
70521;BME280;58442;52.716;23.560;2024-03-29T00:06:37;99593.34;;;8.88;69.23
70521;BME280;58442;52.716;23.560;2024-03-29T00:06:48;99593.34;;;8.88;69.23
70521;BME280;58442;52.716;23.560;2024-03-29T00:07:00;99594.91;;;8.89;69.23
70521;BME280;58442;52.716;23.560;2024-03-29T00:07:11;99600.70;;;8.87;69.23
70521;BME280;58442;52.716;23.560;2024-03-29T00:07:22;99596.06;;;8.88;69.24
70521;BME280;58442;52.716;23.560;2024-03-29T00:07:33;99603.41;;;8.87;69.25
70521;BME280;58442;52.716;23.560;2024-03-29T00:07:45;99599.92;;;8.87;69.25
70521;BME280;58442;52.716;23.560;2024-03-29T00:07:56;99601.84;;;8.86;69.25
70521;BME280;58442;52.716;23.560;2024-03-29T00:08:07;99601.84;;;8.86;69.26
70521;BME280;58442;52.716;23.560;2024-03-29T00:08:18;99598.36;;;8.86;69.26
70521;BME280;58442;52.716;23.560;2024-03-29T00:08:29;99601.07;;;8.86;69.26
70521;BME280;58442;52.716;23.560;2024-03-29T00:08:40;99604.90;;;8.85;69.28
70521;BME280;58442;52.716;23.560;2024-03-29T00:08:51;99607.60;;;8.85;69.27
70521;BME280;58442;52.716;23.560;2024-03-29T00:09:03;99602.19;;;8.85;69.28
70521;BME280;58442;52.716;23.560;2024-03-29T00:09:14;99611.10;;;8.85;69.28
70521;BME280;58442;52.716;23.560;2024-03-29T00:09:25;99606.83;;;8.84;69.28
70521;BME280;58442;52.716;23.560;2024-03-29T00:09:36;99613.02;;;8.85;69.29
70521;BME280;58442;52.716;23.560;2024-03-29T00:09:48;99604.90;;;8.85;69.28
70521;BME280;58442;52.716;23.560;2024-03-29T00:09:59;99604.90;;;8.85;69.28
70521;BME280;58442;52.716;23.560;2024-03-29T00:10:10;99604.12;;;8.84;69.28
70521;BME280;58442;52.716;23.560;2024-03-29T00:10:22;99603.34;;;8.84;69.27
70521;BME280;58442;52.716;23.560;2024-03-29T00:10:33;99608.75;;;8.84;69.27
70521;BME280;58442;52.716;23.560;2024-03-29T00:10:47;99603.71;;;8.82;69.26
70521;BME280;58442;52.716;23.560;2024-03-29T00:10:58;99606.41;;;8.82;69.26
70521;BME280;58442;52.716;23.560;2024-03-29T00:11:09;99612.62;;;8.83;69.25
70521;BME280;58442;52.716;23.560;2024-03-29T00:11:20;99605.64;;;8.82;69.25
70521;BME280;58442;52.716;23.560;2024-03-29T00:11:31;99609.91;;;8.83;69.20
70521;BME280;58442;52.716;23.560;2024-03-29T00:11:43;99610.28;;;8.81;69.25
70521;BME280;58442;52.716;23.560;2024-03-29T00:11:54;99604.86;;;8.81;69.26
70521;BME280;58442;52.716;23.560;2024-03-29T00:12:06;99606.01;;;8.80;69.26
70521;BME280;58442;52.716;23.560;2024-03-29T00:12:17;99609.50;;;8.81;69.25
70521;BME280;58442;52.716;23.560;2024-03-29T00:12:28;99607.94;;;8.80;69.25
70521;BME280;58442;52.716;23.560;2024-03-29T00:12:40;99607.94;;;8.80;69.25
70521;BME280;58442;52.716;23.560;2024-03-29T00:12:51;99607.16;;;8.79;69.26
70521;BME280;58442;52.716;23.560;2024-03-29T00:13:02;99612.20;;;8.81;69.27
70521;BME280;58442;52.716;23.560;2024-03-29T00:13:13;99603.67;;;8.79;69.27
70521;BME280;58442;52.716;23.560;2024-03-29T00:13:25;99607.16;;;8.79;69.26
70521;BME280;58442;52.716;23.560;2024-03-29T00:13:36;99606.38;;;8.79;69.26
70521;BME280;58442;52.716;23.560;2024-03-29T00:13:47;99603.67;;;8.79;69.26
70521;BME280;58442;52.716;23.560;2024-03-29T00:13:58;99610.20;;;8.77;69.26
70521;BME280;58442;52.716;23.560;2024-03-29T00:14:09;99603.22;;;8.76;69.27
70521;BME280;58442;52.716;23.560;2024-03-29T00:14:21;99603.22;;;8.76;69.28
70521;BME280;58442;52.716;23.560;2024-03-29T00:14:32;99601.30;;;8.77;69.27
70521;BME280;58442;52.716;23.560;2024-03-29T00:14:43;99598.59;;;8.77;69.28
70521;BME280;58442;52.716;23.560;2024-03-29T00:14:54;99601.66;;;8.75;69.28
70521;BME280;58442;52.716;23.560;2024-03-29T00:15:07;99602.45;;;8.76;69.29
70521;BME280;58442;52.716;23.560;2024-03-29T00:15:18;99600.89;;;8.75;69.30
70521;BME280;58442;52.716;23.560;2024-03-29T00:15:31;99600.10;;;8.74;69.29
70521;BME280;58442;52.716;23.560;2024-03-29T00:15:45;99594.69;;;8.74;69.30
70521;BME280;58442;52.716;23.560;2024-03-29T00:15:56;99600.10;;;8.74;69.32
70521;BME280;58442;52.716;23.560;2024-03-29T00:16:08;99593.13;;;8.73;69.33
70521;BME280;58442;52.716;23.560;2024-03-29T00:16:19;99598.54;;;8.73;69.34
70521;BME280;58442;52.716;23.560;2024-03-29T00:16:33;99594.27;;;8.72;69.35
70521;BME280;58442;52.716;23.560;2024-03-29T00:16:44;99596.98;;;8.72;69.35
70521;BME280;58442;52.716;23.560;2024-03-29T00:16:55;99594.27;;;8.72;69.36
70521;BME280;58442;52.716;23.560;2024-03-29T00:17:07;99586.93;;;8.73;69.35
70521;BME280;58442;52.716;23.560;2024-03-29T00:17:18;99585.37;;;8.72;69.36
70521;BME280;58442;52.716;23.560;2024-03-29T00:17:29;99587.27;;;8.71;69.36
70521;BME280;58442;52.716;23.560;2024-03-29T00:17:41;99590.79;;;8.72;69.37
70521;BME280;58442;52.716;23.560;2024-03-29T00:17:52;99589.20;;;8.71;69.38
70521;BME280;58442;52.716;23.560;2024-03-29T00:18:03;99580.30;;;8.70;69.38
70521;BME280;58442;52.716;23.560;2024-03-29T00:18:14;99576.80;;;8.70;69.38
70521;BME280;58442;52.716;23.560;2024-03-29T00:18:25;99580.30;;;8.70;69.38
70521;BME280;58442;52.716;23.560;2024-03-29T00:18:36;99582.22;;;8.70;69.38
70521;BME280;58442;52.716;23.560;2024-03-29T00:18:47;99580.66;;;8.69;69.38
70521;BME280;58442;52.716;23.560;2024-03-29T00:18:59;99576.02;;;8.69;69.39
70521;BME280;58442;52.716;23.560;2024-03-29T00:19:10;99574.47;;;8.68;69.38
70521;BME280;58442;52.716;23.560;2024-03-29T00:19:21;99584.16;;;8.69;69.39
70521;BME280;58442;52.716;23.560;2024-03-29T00:19:32;99570.98;;;8.68;69.40
70521;BME280;58442;52.716;23.560;2024-03-29T00:19:43;99577.54;;;8.67;69.40
70521;BME280;58442;52.716;23.560;2024-03-29T00:19:54;99568.64;;;8.66;69.41
70521;BME280;58442;52.716;23.560;2024-03-29T00:20:06;99577.91;;;8.65;69.42
70521;BME280;58442;52.716;23.560;2024-03-29T00:20:19;99580.62;;;8.65;69.44
70521;BME280;58442;52.716;23.560;2024-03-29T00:20:32;99573.62;;;8.64;69.45
70521;BME280;58442;52.716;23.560;2024-03-29T00:20:43;99576.32;;;8.64;69.45
70521;BME280;58442;52.716;23.560;2024-03-29T00:20:54;99574.77;;;8.63;69.46
70521;BME280;58442;52.716;23.560;2024-03-29T00:21:05;99577.47;;;8.63;69.46
70521;BME280;58442;52.716;23.560;2024-03-29T00:21:17;99574.77;;;8.63;69.48
70521;BME280;58442;52.716;23.560;2024-03-29T00:21:28;99576.69;;;8.63;69.49
70521;BME280;58442;52.716;23.560;2024-03-29T00:21:39;99575.91;;;8.62;69.50
70521;BME280;58442;52.716;23.560;2024-03-29T00:21:51;99573.20;;;8.62;69.50
70521;BME280;58442;52.716;23.560;2024-03-29T00:22:02;99575.13;;;8.62;69.51
70521;BME280;58442;52.716;23.560;2024-03-29T00:22:13;99573.57;;;8.61;69.52
70521;BME280;58442;52.716;23.560;2024-03-29T00:22:25;99578.98;;;8.61;69.52
70521;BME280;58442;52.716;23.560;2024-03-29T00:22:36;99583.63;;;8.60;69.52
70521;BME280;58442;52.716;23.560;2024-03-29T00:22:47;99583.63;;;8.60;69.54
70521;BME280;58442;52.716;23.560;2024-03-29T00:22:58;99580.14;;;8.60;69.54
70521;BME280;58442;52.716;23.560;2024-03-29T00:23:09;99582.06;;;8.59;69.56
70521;BME280;58442;52.716;23.560;2024-03-29T00:23:20;99586.70;;;8.59;69.55
70521;BME280;58442;52.716;23.560;2024-03-29T00:23:31;99581.28;;;8.59;69.59
70521;BME280;58442;52.716;23.560;2024-03-29T00:23:43;99582.41;;;8.58;69.55
70521;BME280;58442;52.716;23.560;2024-03-29T00:23:56;99591.34;;;8.58;69.55
70521;BME280;58442;52.716;23.560;2024-03-29T00:24:07;99579.70;;;8.58;69.56
70521;BME280;58442;52.716;23.560;2024-03-29T00:24:18;99584.34;;;8.57;69.55
70521;BME280;58442;52.716;23.560;2024-03-29T00:24:29;99589.75;;;8.57;69.55
70521;BME280;58442;52.716;23.560;2024-03-29T00:24:40;99588.97;;;8.57;69.55
70521;BME280;58442;52.716;23.560;2024-03-29T00:24:51;99589.75;;;8.57;69.54
70521;BME280;58442;52.716;23.560;2024-03-29T00:25:03;99595.16;;;8.57;69.55
70521;BME280;58442;52.716;23.560;2024-03-29T00:25:14;99597.09;;;8.57;69.54
70521;BME280;58442;52.716;23.560;2024-03-29T00:25:25;99592.46;;;8.57;69.54
70521;BME280;58442;52.716;23.560;2024-03-29T00:25:36;99594.38;;;8.57;69.53
70521;BME280;58442;52.716;23.560;2024-03-29T00:25:48;99590.11;;;8.56;69.54
70521;BME280;58442;52.716;23.560;2024-03-29T00:25:59;99594.76;;;8.55;69.54
70521;BME280;58442;52.716;23.560;2024-03-29T00:26:11;99592.05;;;8.55;69.54
70521;BME280;58442;52.716;23.560;2024-03-29T00:26:22;99592.05;;;8.55;69.54
70521;BME280;58442;52.716;23.560;2024-03-29T00:26:33;99594.76;;;8.55;69.55
70521;BME280;58442;52.716;23.560;2024-03-29T00:26:44;99594.76;;;8.55;69.55
70521;BME280;58442;52.716;23.560;2024-03-29T00:26:56;99598.60;;;8.54;69.55
70521;BME280;58442;52.716;23.560;2024-03-29T00:27:07;99593.97;;;8.55;69.54
70521;BME280;58442;52.716;23.560;2024-03-29T00:27:18;99597.46;;;8.55;69.55
70521;BME280;58442;52.716;23.560;2024-03-29T00:27:29;99596.69;;;8.55;69.52
70521;BME280;58442;52.716;23.560;2024-03-29T00:27:41;99595.91;;;8.54;69.54
70521;BME280;58442;52.716;23.560;2024-03-29T00:27:54;99597.83;;;8.54;69.55
70521;BME280;58442;52.716;23.560;2024-03-29T00:28:06;99595.91;;;8.54;69.54
70521;BME280;58442;52.716;23.560;2024-03-29T00:28:17;99592.78;;;8.52;69.65
70521;BME280;58442;52.716;23.560;2024-03-29T00:28:29;99596.27;;;8.53;69.53
70521;BME280;58442;52.716;23.560;2024-03-29T00:28:40;99591.63;;;8.53;69.52
70521;BME280;58442;52.716;23.560;2024-03-29T00:28:51;99592.78;;;8.52;69.52
70521;BME280;58442;52.716;23.560;2024-03-29T00:29:02;99590.07;;;8.52;69.53
70521;BME280;58442;52.716;23.560;2024-03-29T00:29:14;99590.86;;;8.53;69.53
70521;BME280;58442;52.716;23.560;2024-03-29T00:29:25;99599.34;;;8.51;69.53
70521;BME280;58442;52.716;23.560;2024-03-29T00:29:38;99595.48;;;8.52;69.54
70521;BME280;58442;52.716;23.560;2024-03-29T00:29:49;99595.48;;;8.52;69.53
70521;BME280;58442;52.716;23.560;2024-03-29T00:30:04;99592.34;;;8.50;69.54
70521;BME280;58442;52.716;23.560;2024-03-29T00:30:15;99595.83;;;8.50;69.54
70521;BME280;58442;52.716;23.560;2024-03-29T00:30:27;99596.97;;;8.49;69.55
70521;BME280;58442;52.716;23.560;2024-03-29T00:30:38;99596.97;;;8.49;69.56
70521;BME280;58442;52.716;23.560;2024-03-29T00:30:49;99593.13;;;8.50;69.58
70521;BME280;58442;52.716;23.560;2024-03-29T00:31:00;99597.75;;;8.50;69.57
70521;BME280;58442;52.716;23.560;2024-03-29T00:31:11;99598.12;;;8.48;69.57
70521;BME280;58442;52.716;23.560;2024-03-29T00:31:23;99602.38;;;8.49;69.56
70521;BME280;58442;52.716;23.560;2024-03-29T00:31:34;99598.90;;;8.49;69.58
70521;BME280;58442;52.716;23.560;2024-03-29T00:31:45;99598.90;;;8.49;69.57
70521;BME280;58442;52.716;23.560;2024-03-29T00:31:56;99598.90;;;8.49;69.57
70521;BME280;58442;52.716;23.560;2024-03-29T00:32:07;99600.83;;;8.48;69.57
70521;BME280;58442;52.716;23.560;2024-03-29T00:32:19;99602.75;;;8.48;69.58
70521;BME280;58442;52.716;23.560;2024-03-29T00:32:30;99608.17;;;8.48;69.57
70521;BME280;58442;52.716;23.560;2024-03-29T00:32:41;99601.19;;;8.47;69.58
70521;BME280;58442;52.716;23.560;2024-03-29T00:32:52;99598.48;;;8.47;69.57
70521;BME280;58442;52.716;23.560;2024-03-29T00:33:04;99603.90;;;8.47;69.57
70521;BME280;58442;52.716;23.560;2024-03-29T00:33:15;99605.83;;;8.46;69.56
70521;BME280;58442;52.716;23.560;2024-03-29T00:33:26;99607.38;;;8.47;69.56
70521;BME280;58442;52.716;23.560;2024-03-29T00:33:38;99603.13;;;8.46;69.57
70521;BME280;58442;52.716;23.560;2024-03-29T00:33:49;99596.14;;;8.45;69.57
70521;BME280;58442;52.716;23.560;2024-03-29T00:34:00;99600.41;;;8.46;69.59
70521;BME280;58442;52.716;23.560;2024-03-29T00:34:11;99599.63;;;8.46;69.60
70521;BME280;58442;52.716;23.560;2024-03-29T00:34:23;99607.75;;;8.46;69.61
70521;BME280;58442;52.716;23.560;2024-03-29T00:34:34;99603.48;;;8.45;69.60
70521;BME280;58442;52.716;23.560;2024-03-29T00:34:45;99602.71;;;8.44;69.61
70521;BME280;58442;52.716;23.560;2024-03-29T00:34:56;99603.48;;;8.45;69.61
70521;BME280;58442;52.716;23.560;2024-03-29T00:35:08;99599.20;;;8.44;69.62
70521;BME280;58442;52.716;23.560;2024-03-29T00:35:19;99606.20;;;8.45;69.62
70521;BME280;58442;52.716;23.560;2024-03-29T00:35:33;99601.90;;;8.44;69.63
70521;BME280;58442;52.716;23.560;2024-03-29T00:35:44;99601.90;;;8.44;69.63
70521;BME280;58442;52.716;23.560;2024-03-29T00:35:56;99603.05;;;8.43;69.62
70521;BME280;58442;52.716;23.560;2024-03-29T00:36:07;99606.53;;;8.43;69.64
70521;BME280;58442;52.716;23.560;2024-03-29T00:36:19;99603.05;;;8.43;69.65
70521;BME280;58442;52.716;23.560;2024-03-29T00:36:30;99599.20;;;8.44;69.65
70521;BME280;58442;52.716;23.560;2024-03-29T00:36:41;99606.91;;;8.42;69.65
70521;BME280;58442;52.716;23.560;2024-03-29T00:36:52;99604.61;;;8.44;69.64
70521;BME280;58442;52.716;23.560;2024-03-29T00:37:03;99600.34;;;8.43;69.64
70521;BME280;58442;52.716;23.560;2024-03-29T00:37:15;99603.05;;;8.43;69.64
70521;BME280;58442;52.716;23.560;2024-03-29T00:37:26;99605.75;;;8.43;69.64
70521;BME280;58442;52.716;23.560;2024-03-29T00:37:37;99604.98;;;8.42;69.64
70521;BME280;58442;52.716;23.560;2024-03-29T00:37:49;99604.98;;;8.42;69.64
70521;BME280;58442;52.716;23.560;2024-03-29T00:38:00;99604.20;;;8.42;69.64
70521;BME280;58442;52.716;23.560;2024-03-29T00:38:11;99603.05;;;8.43;69.64
70521;BME280;58442;52.716;23.560;2024-03-29T00:38:24;99601.48;;;8.42;69.63
70521;BME280;58442;52.716;23.560;2024-03-29T00:38:36;99603.05;;;8.43;69.64
70521;BME280;58442;52.716;23.560;2024-03-29T00:38:47;99611.16;;;8.43;69.64
70521;BME280;58442;52.716;23.560;2024-03-29T00:38:58;99607.31;;;8.44;69.64
70521;BME280;58442;52.716;23.560;2024-03-29T00:39:09;99608.47;;;8.43;69.64
70521;BME280;58442;52.716;23.560;2024-03-29T00:39:22;99611.95;;;8.43;69.63
70521;BME280;58442;52.716;23.560;2024-03-29T00:39:33;99610.39;;;8.42;69.63
70521;BME280;58442;52.716;23.560;2024-03-29T00:39:45;99611.16;;;8.43;69.62
70521;BME280;58442;52.716;23.560;2024-03-29T00:39:56;99610.02;;;8.44;69.62
70521;BME280;58442;52.716;23.560;2024-03-29T00:40:08;99606.12;;;8.41;69.62
70521;BME280;58442;52.716;23.560;2024-03-29T00:40:19;99606.91;;;8.42;69.63
70521;BME280;58442;52.716;23.560;2024-03-29T00:40:30;99609.61;;;8.42;69.62
70521;BME280;58442;52.716;23.560;2024-03-29T00:40:41;99602.27;;;8.42;69.63
70521;BME280;58442;52.716;23.560;2024-03-29T00:40:52;99610.39;;;8.42;69.63
70521;BME280;58442;52.716;23.560;2024-03-29T00:41:03;99610.39;;;8.42;69.62
70521;BME280;58442;52.716;23.560;2024-03-29T00:41:15;99608.83;;;8.41;69.62
70521;BME280;58442;52.716;23.560;2024-03-29T00:41:26;99609.61;;;8.42;69.63
70521;BME280;58442;52.716;23.560;2024-03-29T00:41:37;99607.27;;;8.40;69.63
70521;BME280;58442;52.716;23.560;2024-03-29T00:41:48;99611.53;;;8.41;69.63
70521;BME280;58442;52.716;23.560;2024-03-29T00:41:59;99609.20;;;8.40;69.65
70521;BME280;58442;52.716;23.560;2024-03-29T00:42:11;99607.27;;;8.40;69.65
70521;BME280;58442;52.716;23.560;2024-03-29T00:42:27;99611.90;;;8.40;69.65
70521;BME280;58442;52.716;23.560;2024-03-29T00:42:38;99611.90;;;8.40;69.66
70521;BME280;58442;52.716;23.560;2024-03-29T00:42:49;99611.90;;;8.40;69.65
70521;BME280;58442;52.716;23.560;2024-03-29T00:43:00;99608.83;;;8.41;69.65
70521;BME280;58442;52.716;23.560;2024-03-29T00:43:12;99607.27;;;8.40;69.65
70521;BME280;58442;52.716;23.560;2024-03-29T00:43:23;99611.90;;;8.40;69.64
70521;BME280;58442;52.716;23.560;2024-03-29T00:43:34;99612.68;;;8.40;69.65
70521;BME280;58442;52.716;23.560;2024-03-29T00:43:45;99609.98;;;8.40;69.66
70521;BME280;58442;52.716;23.560;2024-03-29T00:43:56;99611.90;;;8.40;69.65
70521;BME280;58442;52.716;23.560;2024-03-29T00:44:08;99618.09;;;8.40;69.65
70521;BME280;58442;52.716;23.560;2024-03-29T00:44:19;99609.98;;;8.40;69.65
70521;BME280;58442;52.716;23.560;2024-03-29T00:44:30;99612.68;;;8.40;69.65
70521;BME280;58442;52.716;23.560;2024-03-29T00:44:42;99611.90;;;8.40;69.64
70521;BME280;58442;52.716;23.560;2024-03-29T00:44:54;99606.48;;;8.40;69.64
70521;BME280;58442;52.716;23.560;2024-03-29T00:45:05;99610.34;;;8.39;69.63
70521;BME280;58442;52.716;23.560;2024-03-29T00:45:16;99613.05;;;8.39;69.64
70521;BME280;58442;52.716;23.560;2024-03-29T00:45:27;99608.41;;;8.39;69.64
70521;BME280;58442;52.716;23.560;2024-03-29T00:45:40;99610.34;;;8.39;69.64
70521;BME280;58442;52.716;23.560;2024-03-29T00:45:51;99612.27;;;8.38;69.63
70521;BME280;58442;52.716;23.560;2024-03-29T00:46:03;99604.92;;;8.39;69.65
70521;BME280;58442;52.716;23.560;2024-03-29T00:46:14;99609.55;;;8.38;69.65
70521;BME280;58442;52.716;23.560;2024-03-29T00:46:25;99610.34;;;8.39;69.65
70521;BME280;58442;52.716;23.560;2024-03-29T00:46:36;99610.34;;;8.39;69.66
70521;BME280;58442;52.716;23.560;2024-03-29T00:46:48;99611.49;;;8.38;69.66
70521;BME280;58442;52.716;23.560;2024-03-29T00:46:59;99608.78;;;8.38;69.66
70521;BME280;58442;52.716;23.560;2024-03-29T00:47:10;99608.78;;;8.38;69.66
70521;BME280;58442;52.716;23.560;2024-03-29T00:47:21;99608.78;;;8.38;69.67
70521;BME280;58442;52.716;23.560;2024-03-29T00:47:33;99613.42;;;8.37;69.67
70521;BME280;58442;52.716;23.560;2024-03-29T00:47:44;99610.70;;;8.37;69.67
70521;BME280;58442;52.716;23.560;2024-03-29T00:47:55;99613.42;;;8.37;69.64
70521;BME280;58442;52.716;23.560;2024-03-29T00:48:09;99607.20;;;8.37;69.66
70521;BME280;58442;52.716;23.560;2024-03-29T00:48:20;99609.89;;;8.37;69.67
70521;BME280;58442;52.716;23.560;2024-03-29T00:48:32;99611.03;;;8.36;69.69
70521;BME280;58442;52.716;23.560;2024-03-29T00:48:43;99615.67;;;8.35;69.70
70521;BME280;58442;52.716;23.560;2024-03-29T00:48:58;99606.75;;;8.35;69.71
70521;BME280;58442;52.716;23.560;2024-03-29T00:49:09;99611.03;;;8.36;69.71
70521;BME280;58442;52.716;23.560;2024-03-29T00:49:20;99607.56;;;8.35;69.71
70521;BME280;58442;52.716;23.560;2024-03-29T00:49:31;99602.48;;;8.34;69.72
70521;BME280;58442;52.716;23.560;2024-03-29T00:49:42;99611.38;;;8.34;69.73
70521;BME280;58442;52.716;23.560;2024-03-29T00:49:54;99605.17;;;8.34;69.73
70521;BME280;58442;52.716;23.560;2024-03-29T00:50:05;99607.89;;;8.34;69.74
70521;BME280;58442;52.716;23.560;2024-03-29T00:50:20;99616.01;;;8.34;69.75
70521;BME280;58442;52.716;23.560;2024-03-29T00:50:31;99603.62;;;8.33;69.74
70521;BME280;58442;52.716;23.560;2024-03-29T00:50:42;99607.48;;;8.32;69.75
70521;BME280;58442;52.716;23.560;2024-03-29T00:50:54;99616.01;;;8.34;69.74
70521;BME280;58442;52.716;23.560;2024-03-29T00:51:06;99615.59;;;8.32;69.75
70521;BME280;58442;52.716;23.560;2024-03-29T00:51:17;99610.18;;;8.32;69.76
70521;BME280;58442;52.716;23.560;2024-03-29T00:51:28;99614.82;;;8.31;69.76
70521;BME280;58442;52.716;23.560;2024-03-29T00:51:40;99614.45;;;8.33;69.77
70521;BME280;58442;52.716;23.560;2024-03-29T00:51:51;99610.18;;;8.32;69.77
70521;BME280;58442;52.716;23.560;2024-03-29T00:52:03;99607.48;;;8.32;69.78
70521;BME280;58442;52.716;23.560;2024-03-29T00:52:15;99609.40;;;8.31;69.78
70521;BME280;58442;52.716;23.560;2024-03-29T00:52:27;99608.63;;;8.31;69.78
70521;BME280;58442;52.716;23.560;2024-03-29T00:52:38;99608.63;;;8.31;69.77
70521;BME280;58442;52.716;23.560;2024-03-29T00:52:49;99608.63;;;8.31;69.79
70521;BME280;58442;52.716;23.560;2024-03-29T00:53:00;99608.63;;;8.31;69.78
70521;BME280;58442;52.716;23.560;2024-03-29T00:53:12;99605.91;;;8.31;69.78
70521;BME280;58442;52.716;23.560;2024-03-29T00:53:26;99612.45;;;8.30;69.79
70521;BME280;58442;52.716;23.560;2024-03-29T00:53:37;99606.26;;;8.29;69.79
70521;BME280;58442;52.716;23.560;2024-03-29T00:53:48;99610.89;;;8.29;69.80
70521;BME280;58442;52.716;23.560;2024-03-29T00:53:59;99617.87;;;8.30;69.80
70521;BME280;58442;52.716;23.560;2024-03-29T00:54:10;99611.66;;;8.29;69.80
70521;BME280;58442;52.716;23.560;2024-03-29T00:54:22;99610.10;;;8.28;69.80
70521;BME280;58442;52.716;23.560;2024-03-29T00:54:34;99612.82;;;8.28;69.80
70521;BME280;58442;52.716;23.560;2024-03-29T00:54:45;99608.18;;;8.29;69.80
70521;BME280;58442;52.716;23.560;2024-03-29T00:54:57;99606.63;;;8.28;69.81
70521;BME280;58442;52.716;23.560;2024-03-29T00:55:08;99613.59;;;8.29;69.82
70521;BME280;58442;52.716;23.560;2024-03-29T00:55:20;99613.96;;;8.27;69.82
70521;BME280;58442;52.716;23.560;2024-03-29T00:55:31;99611.26;;;8.27;69.83
70521;BME280;58442;52.716;23.560;2024-03-29T00:55:42;99610.48;;;8.27;69.84
70521;BME280;58442;52.716;23.560;2024-03-29T00:55:54;99606.20;;;8.26;69.83
70521;BME280;58442;52.716;23.560;2024-03-29T00:56:05;99607.77;;;8.27;69.84
70521;BME280;58442;52.716;23.560;2024-03-29T00:56:17;99614.33;;;8.26;69.85
70521;BME280;58442;52.716;23.560;2024-03-29T00:56:28;99611.62;;;8.26;69.86
70521;BME280;58442;52.716;23.560;2024-03-29T00:56:39;99612.77;;;8.25;69.87
70521;BME280;58442;52.716;23.560;2024-03-29T00:56:50;99612.41;;;8.26;69.89
70521;BME280;58442;52.716;23.560;2024-03-29T00:57:02;99613.55;;;8.25;69.88
70521;BME280;58442;52.716;23.560;2024-03-29T00:57:13;99608.50;;;8.23;69.88
70521;BME280;58442;52.716;23.560;2024-03-29T00:57:27;99613.91;;;8.23;69.91
70521;BME280;58442;52.716;23.560;2024-03-29T00:57:38;99613.91;;;8.23;69.91
70521;BME280;58442;52.716;23.560;2024-03-29T00:57:49;99609.61;;;8.22;69.90
70521;BME280;58442;52.716;23.560;2024-03-29T00:58:00;99609.28;;;8.24;69.92
70521;BME280;58442;52.716;23.560;2024-03-29T00:58:12;99603.09;;;8.23;69.92
70521;BME280;58442;52.716;23.560;2024-03-29T00:58:23;99609.61;;;8.22;69.93
70521;BME280;58442;52.716;23.560;2024-03-29T00:58:34;99613.10;;;8.23;69.94
70521;BME280;58442;52.716;23.560;2024-03-29T00:58:45;99609.61;;;8.22;69.94
70521;BME280;58442;52.716;23.560;2024-03-29T00:58:57;99609.61;;;8.22;69.95
70521;BME280;58442;52.716;23.560;2024-03-29T00:59:08;99606.13;;;8.22;69.94
70521;BME280;58442;52.716;23.560;2024-03-29T00:59:19;99610.76;;;8.21;69.95
70521;BME280;58442;52.716;23.560;2024-03-29T00:59:31;99608.05;;;8.21;69.95
70521;BME280;58442;52.716;23.560;2024-03-29T00:59:42;99607.27;;;8.21;69.95
70521;BME280;58442;52.716;23.560;2024-03-29T00:59:54;99605.34;;;8.21;69.96
70521;BME280;58442;52.716;23.560;2024-03-29T01:00:08;99616.17;;;8.21;69.98
70521;BME280;58442;52.716;23.560;2024-03-29T01:00:21;99615.75;;;8.19;69.97
70521;BME280;58442;52.716;23.560;2024-03-29T01:00:32;99605.70;;;8.20;69.98
70521;BME280;58442;52.716;23.560;2024-03-29T01:00:44;99608.41;;;8.20;69.98
70521;BME280;58442;52.716;23.560;2024-03-29T01:00:55;99607.64;;;8.19;69.99
70521;BME280;58442;52.716;23.560;2024-03-29T01:01:06;99613.05;;;8.19;69.98